createdAt,value
2019-02-26T00:02:28.807Z,66.65
2019-02-26T00:05:02.878Z,66.73
2019-02-26T00:07:32.155Z,67.21
2019-02-26T00:10:05.302Z,67.35
2019-02-26T00:12:37.363Z,67.64
2019-02-26T00:15:10.770Z,67.60
2019-02-26T00:17:45.309Z,67.79
2019-02-26T00:20:15.027Z,67.90
2019-02-26T00:22:46.548Z,67.95
2019-02-26T00:25:17.993Z,68.10
2019-02-26T00:27:50.238Z,68.29
2019-02-26T00:30:22.420Z,68.56
2019-02-26T00:32:55.439Z,68.96
2019-02-26T00:35:27.761Z,69.12
2019-02-26T00:38:00.484Z,69.41
2019-02-26T00:40:32.703Z,69.67
2019-02-26T00:43:06.580Z,69.77
2019-02-26T00:45:39.050Z,69.98
2019-02-26T00:48:09.077Z,70.15
2019-02-26T00:50:40.507Z,70.09
2019-02-26T00:53:11.972Z,70.40
2019-02-26T00:55:43.388Z,70.50
2019-02-26T00:58:15.776Z,70.54
2019-02-26T01:00:47.204Z,70.63
2019-02-26T01:03:18.376Z,70.61
2019-02-26T01:05:50.726Z,70.79
2019-02-26T01:08:22.208Z,71.26
2019-02-26T01:10:53.632Z,71.48
2019-02-26T01:13:27.637Z,71.47
2019-02-26T01:15:57.147Z,71.57
2019-02-26T01:18:29.038Z,71.72
2019-02-26T01:21:02.522Z,71.90
2019-02-26T01:23:32.751Z,71.91
2019-02-26T01:26:04.181Z,72.16
2019-02-26T01:28:35.649Z,72.15
2019-02-26T01:31:07.396Z,72.27
2019-02-26T01:33:37.940Z,72.44
2019-02-26T01:36:09.370Z,72.59
2019-02-26T01:38:41.746Z,72.92
2019-02-26T01:41:13.622Z,72.90
2019-02-26T01:43:44.668Z,73.13
2019-02-26T01:46:16.926Z,73.31
2019-02-26T01:48:47.282Z,73.29
2019-02-26T01:51:19.453Z,73.31
2019-02-26T01:53:51.917Z,73.70
2019-02-26T01:56:22.824Z,73.79
2019-02-26T01:58:56.580Z,73.99
2019-02-26T02:01:26.245Z,73.93
2019-02-26T02:03:56.598Z,74.06
2019-02-26T02:06:30.171Z,74.06
2019-02-26T02:09:00.096Z,74.08
2019-02-26T02:11:33.334Z,74.28
2019-02-26T02:14:06.046Z,74.29
2019-02-26T02:16:37.509Z,74.47
2019-02-26T02:19:09.902Z,74.49
2019-02-26T02:21:40.418Z,74.67
2019-02-26T02:24:14.707Z,74.94
2019-02-26T02:26:47.504Z,75.07
2019-02-26T02:29:16.891Z,75.09
2019-02-26T02:31:48.059Z,75.07
2019-02-26T02:34:20.450Z,75.24
2019-02-26T02:36:51.882Z,75.44
2019-02-26T02:39:26.552Z,75.60
2019-02-26T02:41:56.632Z,75.77
2019-02-26T02:44:29.989Z,76.03
2019-02-26T02:47:01.892Z,75.87
2019-02-26T02:49:38.914Z,76.22
2019-02-26T02:52:09.053Z,76.58
2019-02-26T02:54:41.089Z,76.30
2019-02-26T02:57:10.881Z,76.74
2019-02-26T02:59:42.248Z,76.81
2019-02-26T03:02:15.071Z,76.80
2019-02-26T03:04:47.068Z,76.96
2019-02-26T03:07:18.672Z,76.92
2019-02-26T03:09:49.665Z,76.97
2019-02-26T03:12:21.110Z,76.89
2019-02-26T03:14:51.645Z,77.16
2019-02-26T03:17:23.092Z,77.02
2019-02-26T03:19:56.039Z,77.18
2019-02-26T03:22:26.301Z,77.03
2019-02-26T03:24:59.599Z,77.15
2019-02-26T03:27:34.167Z,77.72
2019-02-26T03:30:06.914Z,77.50
2019-02-26T03:32:41.499Z,77.65
2019-02-26T03:35:10.161Z,77.52
2019-02-26T03:37:43.616Z,77.41
2019-02-26T03:40:15.231Z,77.56
2019-02-26T03:42:46.302Z,77.55
2019-02-26T03:45:23.650Z,77.55
2019-02-26T03:47:50.647Z,77.34
2019-02-26T03:50:26.319Z,77.36
2019-02-26T03:52:54.177Z,77.45
2019-02-26T03:55:25.617Z,77.50
2019-02-26T03:58:01.410Z,77.19
2019-02-26T04:00:32.487Z,77.30
2019-02-26T04:03:03.506Z,77.39
2019-02-26T04:05:34.490Z,77.30
2019-02-26T04:08:05.945Z,77.22
2019-02-26T04:10:37.395Z,77.53
2019-02-26T04:13:08.843Z,77.59
2019-02-26T04:15:39.551Z,77.76
2019-02-26T04:18:09.938Z,77.76
2019-02-26T04:20:43.397Z,77.47
2019-02-26T04:23:18.724Z,77.29
2019-02-26T04:25:52.125Z,77.45
2019-02-26T04:28:32.991Z,77.57
2019-02-26T04:31:04.247Z,77.66
2019-02-26T04:33:58.904Z,77.66
2019-02-26T04:36:49.250Z,77.85
2019-02-26T04:39:47.583Z,78.03
2019-02-26T04:42:25.355Z,78.02
2019-02-26T04:45:27.370Z,77.98
2019-02-26T04:48:02.628Z,78.30
2019-02-26T04:50:35.497Z,78.55
2019-02-26T04:53:08.468Z,78.85
2019-02-26T04:55:39.090Z,79.06
2019-02-26T04:58:12.443Z,78.97
2019-02-26T05:00:42.049Z,79.29
2019-02-26T05:03:14.904Z,79.27
2019-02-26T05:05:45.359Z,79.29
2019-02-26T05:08:17.790Z,79.08
2019-02-26T05:10:49.838Z,79.21
2019-02-26T05:13:21.996Z,79.36
2019-02-26T05:15:52.402Z,78.96
2019-02-26T05:18:25.870Z,78.90
2019-02-26T05:20:55.925Z,79.04
2019-02-26T05:23:30.860Z,79.16
2019-02-26T05:26:05.151Z,79.31
2019-02-26T05:28:37.495Z,79.38
2019-02-26T05:31:06.549Z,79.51
2019-02-26T05:33:38.608Z,79.31
2019-02-26T05:36:11.561Z,79.58
2019-02-26T05:38:40.984Z,79.55
2019-02-26T05:41:12.438Z,79.63
2019-02-26T05:43:49.492Z,79.42
2019-02-26T05:46:18.885Z,79.22
2019-02-26T05:48:49.111Z,79.39
2019-02-26T05:51:20.088Z,79.21
2019-02-26T05:53:51.543Z,78.96
2019-02-26T05:56:23.016Z,79.00
2019-02-26T05:58:54.487Z,78.94
2019-02-26T06:01:25.864Z,78.80
2019-02-26T06:03:56.728Z,78.74
2019-02-26T06:06:28.214Z,78.93
2019-02-26T06:09:00.442Z,78.76
2019-02-26T06:11:36.131Z,78.84
2019-02-26T06:14:09.163Z,79.15
2019-02-26T06:16:38.287Z,79.09
2019-02-26T06:19:12.886Z,79.21
2019-02-26T06:21:44.744Z,79.12
2019-02-26T06:24:15.120Z,79.09
2019-02-26T06:26:45.566Z,79.23
2019-02-26T06:29:20.042Z,79.28
2019-02-26T06:31:49.431Z,79.28
2019-02-26T06:34:21.418Z,79.17
2019-02-26T06:36:54.035Z,79.09
2019-02-26T06:39:26.831Z,79.05
2019-02-26T06:42:03.078Z,78.93
2019-02-26T06:44:34.900Z,78.96
2019-02-26T06:47:06.954Z,78.75
2019-02-26T06:49:41.412Z,78.33
2019-02-26T06:52:16.294Z,78.59
2019-02-26T06:54:50.557Z,78.60
2019-02-26T06:57:19.035Z,78.68
2019-02-26T06:59:51.532Z,78.27
2019-02-26T07:02:22.762Z,78.36
2019-02-26T07:04:53.063Z,78.65
2019-02-26T07:07:24.537Z,78.65
2019-02-26T07:09:58.100Z,78.50
2019-02-26T07:12:30.789Z,78.35
2019-02-26T07:15:02.791Z,78.08
2019-02-26T07:17:38.347Z,77.72
2019-02-26T07:20:09.276Z,77.79
2019-02-26T07:22:41.494Z,77.80
2019-02-26T07:25:16.637Z,77.48
2019-02-26T07:27:47.184Z,77.67
2019-02-26T07:30:18.640Z,77.52
2019-02-26T07:32:50.228Z,77.49
2019-02-26T07:35:20.623Z,77.75
2019-02-26T07:37:52.809Z,77.67
2019-02-26T07:40:24.155Z,77.42
2019-02-26T07:42:55.622Z,76.87
2019-02-26T07:45:27.441Z,76.64
2019-02-26T07:48:01.051Z,76.75
2019-02-26T07:50:36.957Z,76.78
2019-02-26T07:53:03.559Z,76.75
2019-02-26T07:55:35.478Z,76.52
2019-02-26T07:58:08.193Z,76.51
2019-02-26T08:00:40.363Z,76.02
2019-02-26T08:03:13.646Z,75.88
2019-02-26T08:05:44.218Z,75.54
2019-02-26T08:08:17.071Z,75.42
2019-02-26T08:10:50.778Z,75.29
2019-02-26T08:13:21.296Z,75.47
2019-02-26T08:15:54.983Z,75.53
2019-02-26T08:18:25.071Z,75.33
2019-02-26T08:20:57.967Z,74.88
2019-02-26T08:23:28.034Z,74.75
2019-02-26T08:26:02.151Z,74.17
2019-02-26T08:28:32.559Z,74.08
2019-02-26T08:31:05.342Z,73.81
2019-02-26T08:33:35.375Z,73.41
2019-02-26T08:36:07.331Z,72.84
2019-02-26T08:38:38.687Z,72.55
2019-02-26T08:41:09.027Z,72.10
2019-02-26T08:43:42.175Z,72.12
2019-02-26T08:46:12.179Z,71.87
2019-02-26T08:51:49.043Z,68.83
2019-02-26T08:54:21.263Z,68.22
2019-02-26T08:56:51.374Z,68.12
2019-02-26T08:59:22.029Z,68.22
2019-02-26T09:01:52.393Z,67.80
2019-02-26T09:04:24.200Z,67.34
2019-02-26T09:06:57.048Z,65.59
2019-02-26T09:09:27.813Z,65.06
2019-02-26T09:12:00.655Z,63.69
2019-02-26T09:14:34.456Z,64.38
2019-02-26T09:17:04.528Z,64.12
2019-02-26T09:19:37.911Z,63.01
2019-02-26T09:22:11.767Z,63.36
2019-02-26T09:24:39.949Z,62.99
2019-02-26T09:27:10.221Z,63.99
2019-02-26T09:29:43.938Z,63.89
2019-02-26T09:32:14.407Z,63.63
2019-02-26T09:34:44.420Z,62.48
2019-02-26T09:37:14.850Z,61.74
2019-02-26T09:39:46.291Z,62.79
2019-02-26T09:42:17.536Z,62.60
2019-02-26T09:44:48.681Z,62.15
2019-02-26T09:47:23.514Z,62.49
2019-02-26T09:49:53.908Z,62.64
2019-02-26T09:52:27.560Z,61.90
2019-02-26T09:54:57.307Z,60.98
2019-02-26T09:57:28.294Z,59.30
2019-02-26T10:00:00.238Z,59.32
2019-02-26T10:02:30.974Z,59.93
2019-02-26T10:05:01.240Z,59.44
2019-02-26T10:07:33.869Z,59.52
2019-02-26T10:10:08.482Z,59.20
2019-02-26T10:12:39.359Z,59.05
2019-02-26T10:15:12.678Z,58.66
2019-02-26T10:17:45.055Z,58.98
2019-02-26T10:20:31.001Z,59.80
2019-02-26T10:23:02.871Z,59.90
2019-02-26T10:25:38.782Z,61.39
2019-02-26T10:28:14.106Z,62.64
2019-02-26T10:30:43.778Z,62.72
2019-02-26T10:33:17.431Z,62.64
2019-02-26T10:35:48.076Z,62.84
2019-02-26T10:38:18.343Z,62.74
2019-02-26T10:40:53.862Z,62.20
2019-02-26T10:43:20.646Z,62.48
2019-02-26T10:45:54.753Z,62.04
2019-02-26T10:48:25.101Z,62.11
2019-02-26T10:50:56.105Z,62.20
2019-02-26T10:53:26.375Z,61.58
2019-02-26T10:55:56.645Z,61.36
2019-02-26T10:58:26.925Z,60.86
2019-02-26T11:00:59.368Z,60.77
2019-02-26T11:03:29.899Z,61.40
2019-02-26T11:06:01.452Z,62.07
2019-02-26T11:08:35.101Z,62.60
2019-02-26T11:11:07.997Z,63.01
2019-02-26T11:13:40.134Z,62.90
2019-02-26T11:16:10.762Z,62.41
2019-02-26T11:18:42.730Z,61.97
2019-02-26T11:21:14.252Z,62.37
2019-02-26T11:23:46.429Z,62.33
2019-02-26T11:26:18.766Z,61.12
2019-02-26T11:28:48.523Z,61.13
2019-02-26T11:31:20.438Z,60.43
2019-02-26T11:33:50.766Z,60.05
2019-02-26T11:36:21.061Z,59.59
2019-02-26T11:38:51.322Z,59.75
2019-02-26T11:41:23.727Z,60.03
2019-02-26T11:43:55.068Z,59.44
2019-02-26T11:46:27.213Z,59.91
2019-02-26T11:48:57.542Z,59.18
2019-02-26T11:51:36.866Z,58.75
2019-02-26T11:54:02.489Z,57.93
2019-02-26T11:56:32.164Z,58.63
2019-02-26T11:59:02.431Z,57.88
2019-02-26T12:01:36.921Z,57.70
2019-02-26T12:04:08.542Z,57.74
2019-02-26T12:06:39.543Z,57.08
2019-02-26T12:09:11.466Z,57.22
2019-02-26T12:11:46.920Z,56.77
2019-02-26T12:14:19.485Z,56.21
2019-02-26T12:16:50.984Z,55.98
2019-02-26T12:19:23.547Z,55.51
2019-02-26T12:21:57.511Z,56.12
2019-02-26T12:24:28.913Z,56.13
2019-02-26T12:27:00.132Z,55.71
2019-02-26T12:29:30.401Z,56.04
2019-02-26T12:32:01.215Z,55.57
2019-02-26T12:34:34.987Z,55.89
2019-02-26T12:37:06.672Z,56.35
2019-02-26T12:39:36.552Z,55.74
2019-02-26T12:42:08.034Z,55.73
2019-02-26T12:44:42.377Z,56.54
2019-02-26T12:47:12.911Z,56.09
2019-02-26T12:49:45.078Z,55.89
2019-02-26T12:52:17.930Z,55.41
2019-02-26T12:54:47.573Z,55.37
2019-02-26T12:57:19.801Z,55.35
2019-02-26T12:59:50.869Z,54.81
2019-02-26T13:02:24.605Z,54.69
2019-02-26T13:04:53.505Z,54.54
2019-02-26T13:07:24.113Z,54.72
2019-02-26T13:09:59.690Z,54.29
2019-02-26T13:12:31.562Z,53.34
2019-02-26T13:15:04.797Z,53.72
2019-02-26T13:17:32.287Z,53.69
2019-02-26T13:20:05.820Z,53.32
2019-02-26T13:22:34.802Z,51.84
2019-02-26T13:25:13.318Z,52.05
2019-02-26T13:27:43.190Z,51.91
2019-02-26T13:30:25.740Z,52.27
2019-02-26T13:32:59.914Z,51.62
2019-02-26T13:35:28.799Z,51.12
2019-02-26T13:38:02.161Z,50.96
2019-02-26T13:40:38.667Z,50.79
2019-02-26T13:43:08.447Z,50.48
2019-02-26T13:45:39.789Z,50.72
2019-02-26T13:48:11.223Z,50.86
2019-02-26T13:50:41.490Z,51.41
2019-02-26T13:53:11.755Z,51.81
2019-02-26T13:55:42.026Z,52.70
2019-02-26T13:58:12.435Z,52.39
2019-02-26T14:00:42.990Z,52.67
2019-02-26T14:03:15.147Z,52.83
2019-02-26T14:05:46.437Z,53.55
2019-02-26T14:08:17.867Z,53.81
2019-02-26T14:10:48.145Z,53.13
2019-02-26T14:13:18.408Z,53.13
2019-02-26T14:15:48.766Z,53.46
2019-02-26T14:18:19.159Z,54.14
2019-02-26T14:20:49.753Z,54.19
2019-02-26T14:23:20.066Z,54.53
2019-02-26T14:25:50.316Z,55.43
2019-02-26T14:28:20.574Z,55.73
2019-02-26T14:30:50.840Z,56.33
2019-02-26T14:33:21.157Z,56.29
2019-02-26T14:35:54.208Z,56.68
2019-02-26T14:38:24.484Z,56.84
2019-02-26T14:40:56.140Z,57.47
2019-02-26T14:43:26.409Z,57.50
2019-02-26T14:45:56.751Z,58.00
2019-02-26T14:48:28.294Z,57.87
2019-02-26T14:50:58.732Z,58.85
2019-02-26T14:53:28.952Z,59.02
2019-02-26T14:55:59.221Z,59.35
2019-02-26T14:58:29.699Z,59.49
2019-02-26T15:01:01.145Z,59.68
2019-02-26T15:03:33.824Z,59.60
2019-02-26T15:06:05.275Z,59.83
2019-02-26T15:08:35.555Z,59.71
2019-02-26T15:11:06.090Z,59.91
2019-02-26T15:13:36.922Z,59.96
2019-02-26T15:16:07.502Z,60.05
2019-02-26T15:18:38.265Z,60.14
2019-02-26T15:21:09.724Z,60.13
2019-02-26T15:23:41.516Z,60.30
2019-02-26T15:26:13.100Z,60.13
2019-02-26T15:28:44.657Z,60.18
2019-02-26T15:31:15.107Z,60.24
2019-02-26T15:33:47.305Z,60.24
2019-02-26T15:36:18.730Z,60.52
2019-02-26T15:38:49.302Z,61.01
2019-02-26T15:41:21.782Z,61.14
2019-02-26T15:43:54.530Z,61.23
2019-02-26T15:46:24.710Z,61.48
2019-02-26T15:48:57.232Z,61.92
2019-02-26T15:51:30.415Z,61.80
2019-02-26T15:54:01.988Z,62.00
2019-02-26T15:56:33.345Z,62.15
2019-02-26T15:59:05.318Z,62.27
2019-02-26T16:01:35.726Z,62.59
2019-02-26T16:04:06.234Z,62.59
2019-02-26T16:06:41.184Z,62.74
2019-02-26T16:09:14.841Z,62.61
2019-02-26T16:11:45.397Z,63.31
2019-02-26T16:14:17.320Z,63.71
2019-02-26T16:16:48.539Z,64.00
2019-02-26T16:19:19.888Z,64.86
2019-02-26T16:21:50.244Z,65.28
2019-02-26T16:24:20.530Z,65.82
2019-02-26T16:26:50.805Z,66.22
2019-02-26T16:29:22.280Z,66.54
2019-02-26T16:31:54.069Z,67.02
2019-02-26T16:34:26.677Z,67.27
2019-02-26T16:36:57.040Z,67.40
2019-02-26T16:39:28.508Z,67.76
2019-02-26T16:42:00.387Z,67.91
2019-02-26T16:44:31.046Z,68.41
2019-02-26T16:47:01.333Z,68.78
2019-02-26T16:49:32.999Z,68.86
2019-02-26T16:52:03.270Z,69.03
2019-02-26T16:54:33.572Z,69.07
2019-02-26T16:57:03.731Z,69.02
2019-02-26T16:59:34.014Z,69.04
2019-02-26T17:02:04.366Z,69.08
2019-02-26T17:04:35.329Z,69.23
2019-02-26T17:07:05.610Z,69.32
2019-02-26T17:09:38.612Z,69.50
2019-02-26T17:12:09.619Z,69.53
2019-02-26T17:14:39.941Z,69.66
2019-02-26T17:17:10.313Z,69.94
2019-02-26T17:19:40.870Z,70.07
2019-02-26T17:22:11.369Z,70.30
2019-02-26T17:24:41.647Z,70.43
2019-02-26T17:27:12.507Z,70.26
2019-02-26T17:29:42.983Z,70.53
2019-02-26T17:32:14.470Z,70.63
2019-02-26T17:34:44.822Z,70.62
2019-02-26T17:37:15.110Z,70.39
2019-02-26T17:39:45.484Z,70.54
2019-02-26T17:42:17.874Z,70.47
2019-02-26T17:44:47.719Z,70.68
2019-02-26T17:47:18.083Z,70.61
2019-02-26T17:49:48.830Z,70.53
2019-02-26T17:52:19.199Z,70.79
2019-02-26T17:54:49.894Z,70.83
2019-02-26T17:57:20.312Z,70.99
2019-02-26T17:59:50.589Z,71.11
2019-02-26T18:02:20.897Z,71.30
2019-02-26T18:04:51.643Z,71.41
2019-02-26T18:07:22.236Z,71.46
2019-02-26T18:09:57.121Z,71.53
2019-02-26T18:12:27.447Z,71.75
2019-02-26T18:14:57.736Z,72.05
2019-02-26T18:17:28.021Z,72.02
2019-02-26T18:19:58.354Z,72.10
2019-02-26T18:22:28.621Z,72.32
2019-02-26T18:24:58.988Z,72.49
2019-02-26T18:27:30.499Z,72.73
2019-02-26T18:30:01.727Z,72.78
2019-02-26T18:32:33.431Z,72.95
2019-02-26T18:35:03.729Z,73.37
2019-02-26T18:37:35.670Z,73.46
2019-02-26T18:40:08.698Z,73.52
2019-02-26T18:42:41.404Z,73.67
2019-02-26T18:45:28.755Z,73.91
2019-02-26T18:47:59.527Z,74.02
2019-02-26T18:50:29.804Z,74.32
2019-02-26T18:53:00.114Z,74.36
2019-02-26T18:55:32.646Z,74.64
2019-02-26T18:58:03.527Z,74.75
2019-02-26T19:00:38.096Z,74.84
2019-02-26T19:03:09.487Z,74.75
2019-02-26T19:05:42.740Z,74.89
2019-02-26T19:08:15.834Z,74.55
2019-02-26T19:10:47.175Z,75.62
2019-02-26T19:13:17.528Z,75.11
2019-02-26T19:15:48.471Z,75.57
2019-02-26T19:18:20.318Z,76.00
2019-02-26T19:20:51.235Z,76.82
2019-02-26T19:23:21.516Z,76.40
2019-02-26T19:25:51.789Z,76.18
2019-02-26T19:28:25.934Z,77.31
2019-02-26T19:30:55.837Z,76.77
2019-02-26T19:33:26.242Z,77.05
2019-02-26T19:35:56.511Z,76.86
2019-02-26T19:38:29.705Z,76.67
2019-02-26T19:41:07.901Z,77.63
2019-02-26T19:43:38.753Z,78.40
2019-02-26T19:46:09.038Z,78.24
2019-02-26T19:48:39.492Z,78.14
2019-02-26T19:51:09.770Z,77.89
2019-02-26T19:53:40.066Z,78.44
2019-02-26T19:56:11.796Z,78.25
2019-02-26T19:58:43.978Z,78.36
2019-02-26T20:01:14.263Z,78.25
2019-02-26T20:03:45.727Z,78.53
2019-02-26T20:06:16.011Z,78.23
2019-02-26T20:08:47.333Z,78.53
2019-02-26T20:11:18.037Z,78.33
2019-02-26T20:13:48.322Z,78.28
2019-02-26T20:16:19.368Z,78.60
2019-02-26T20:18:51.185Z,78.47
2019-02-26T20:21:22.911Z,78.28
2019-02-26T20:23:53.567Z,78.27
2019-02-26T20:26:23.992Z,78.21
2019-02-26T20:28:54.357Z,78.25
2019-02-26T20:31:24.665Z,78.27
2019-02-26T20:33:56.338Z,78.25
2019-02-26T20:36:30.231Z,78.25
2019-02-26T20:39:07.638Z,78.26
2019-02-26T20:41:36.962Z,78.19
2019-02-26T20:44:07.856Z,78.00
2019-02-26T20:46:39.812Z,77.90
2019-02-26T20:49:12.342Z,77.99
2019-02-26T20:51:44.980Z,77.83
2019-02-26T20:54:15.659Z,77.72
2019-02-26T20:56:48.090Z,77.65
2019-02-26T20:59:24.483Z,77.52
2019-02-26T21:01:55.953Z,77.25
2019-02-26T21:04:27.536Z,77.07
2019-02-26T21:06:57.916Z,77.05
2019-02-26T21:09:28.233Z,77.09
2019-02-26T21:11:59.889Z,76.83
2019-02-26T21:14:30.316Z,77.17
2019-02-26T21:17:02.200Z,77.25
2019-02-26T21:19:35.725Z,77.10
2019-02-26T21:22:27.119Z,77.06
2019-02-26T21:24:59.280Z,76.81
2019-02-26T21:27:32.282Z,76.72
2019-02-26T21:30:06.953Z,76.68
2019-02-26T21:32:39.267Z,76.27
2019-02-26T21:35:11.698Z,76.50
2019-02-26T21:37:43.489Z,76.61
2019-02-26T21:40:16.888Z,76.44
2019-02-26T21:42:54.199Z,76.65
2019-02-26T21:45:29.161Z,76.80
2019-02-26T21:48:04.502Z,76.82
2019-02-26T21:50:36.524Z,77.18
2019-02-26T21:53:15.455Z,77.05
2019-02-26T21:55:47.120Z,76.92
2019-02-26T21:58:20.136Z,76.78
2019-02-26T22:00:52.773Z,76.61
2019-02-26T22:03:24.837Z,76.57
2019-02-26T22:06:04.847Z,76.29
2019-02-26T22:08:29.143Z,76.55
2019-02-26T22:11:06.457Z,76.96
2019-02-26T22:13:38.331Z,77.43
2019-02-26T22:16:08.596Z,77.84
2019-02-26T22:18:40.594Z,77.47
2019-02-26T22:21:10.870Z,77.33
2019-02-26T22:23:41.135Z,77.54
2019-02-26T22:26:14.479Z,77.73
2019-02-26T22:28:46.726Z,77.83
2019-02-26T22:31:18.158Z,77.73
2019-02-26T22:33:48.432Z,77.53
2019-02-26T22:36:20.292Z,77.57
2019-02-26T22:38:50.561Z,77.83
2019-02-26T22:41:21.054Z,78.12
2019-02-26T22:43:51.322Z,78.27
2019-02-26T22:46:21.582Z,77.97
2019-02-26T22:48:51.845Z,77.81
2019-02-26T22:51:22.174Z,77.75
2019-02-26T22:53:52.460Z,78.34
2019-02-26T22:56:24.714Z,78.76
2019-02-26T22:58:55.080Z,78.20
2019-02-26T23:01:30.585Z,78.31
2019-02-26T23:04:00.619Z,77.17
2019-02-26T23:06:31.723Z,77.53
2019-02-26T23:09:03.667Z,77.51
2019-02-26T23:11:35.687Z,77.02
2019-02-26T23:14:06.490Z,77.58
2019-02-26T23:16:37.084Z,77.67
2019-02-26T23:19:07.592Z,78.36
2019-02-26T23:21:38.686Z,78.45
2019-02-26T23:24:09.211Z,78.88
2019-02-26T23:26:42.513Z,79.44
2019-02-26T23:29:12.955Z,79.61
2019-02-26T23:31:43.217Z,79.34
2019-02-26T23:34:14.651Z,79.67
2019-02-26T23:36:44.907Z,79.54
2019-02-26T23:39:15.561Z,79.22
2019-02-26T23:41:47.412Z,80.08
2019-02-26T23:44:18.955Z,79.69
2019-02-26T23:46:49.283Z,79.33
2019-02-26T23:49:19.556Z,79.69
2019-02-26T23:51:50.994Z,79.64
2019-02-26T23:54:21.789Z,79.43
2019-02-26T23:56:52.684Z,79.23
2019-02-26T23:59:23.369Z,79.23
